createdAt,value
2022-08-12T00:02:04.338Z,101768.50
2022-08-12T00:04:53.821Z,101772.28
2022-08-12T00:07:38.938Z,101773.16
2022-08-12T00:10:24.451Z,101766.97
2022-08-12T00:13:09.867Z,101770.09
2022-08-12T00:15:56.212Z,101769.91
2022-08-12T00:18:41.575Z,101771.13
2022-08-12T00:21:26.896Z,101763.06
2022-08-12T00:24:13.424Z,101769.22
2022-08-12T00:27:00.706Z,101764.25
2022-08-12T00:29:48.192Z,101773.00
2022-08-12T00:32:36.187Z,101774.41
2022-08-12T00:35:26.751Z,101762.91
2022-08-12T00:38:22.548Z,101773.38
2022-08-12T00:41:07.945Z,101772.72
2022-08-12T00:43:41.414Z,101773.06
2022-08-12T00:46:26.245Z,101758.47
2022-08-12T00:48:53.401Z,101764.31
2022-08-12T00:51:20.095Z,101770.84
2022-08-12T00:53:52.039Z,101762.13
2022-08-12T00:56:21.004Z,101766.75
2022-08-12T00:58:50.849Z,101770.66
2022-08-12T01:01:18.326Z,101769.81
2022-08-12T01:04:08.020Z,101770.00
2022-08-12T01:06:54.266Z,101772.22
2022-08-12T01:09:41.033Z,101769.84
2022-08-12T01:12:10.219Z,101774.63
2022-08-12T01:14:37.795Z,101777.56
2022-08-12T01:17:04.979Z,101766.94
2022-08-12T01:19:32.337Z,101773.97
2022-08-12T01:22:20.606Z,101771.75
2022-08-12T01:25:09.706Z,101778.81
2022-08-12T01:27:40.485Z,101771.94
2022-08-12T01:30:09.839Z,101773.31
2022-08-12T01:32:40.398Z,101771.97
2022-08-12T01:35:17.656Z,101772.28
2022-08-12T01:37:54.813Z,101770.91
2022-08-12T01:40:35.378Z,101762.34
2022-08-12T01:43:10.411Z,101764.38
2022-08-12T01:46:09.702Z,101765.94
2022-08-12T01:48:47.666Z,101768.16
2022-08-12T01:52:15.994Z,101763.03
2022-08-12T01:54:22.910Z,101765.91
2022-08-12T01:57:13.552Z,101765.41
2022-08-12T01:59:59.312Z,101765.06
2022-08-12T02:02:32.206Z,101761.63
2022-08-12T02:05:36.009Z,101764.88
2022-08-12T02:08:43.340Z,101768.28
2022-08-12T02:11:29.418Z,101771.22
2022-08-12T02:14:31.381Z,101768.81
2022-08-12T02:17:00.911Z,101765.22
2022-08-12T02:19:42.867Z,101772.91
2022-08-12T02:22:29.108Z,101771.38
2022-08-12T02:25:15.947Z,101777.19
2022-08-12T02:27:51.954Z,101768.44
2022-08-12T02:30:21.991Z,101770.66
2022-08-12T02:32:51.115Z,101764.84
2022-08-12T02:35:23.902Z,101755.03
2022-08-12T02:37:57.317Z,101764.44
2022-08-12T02:40:25.655Z,101761.03
2022-08-12T02:43:16.687Z,101768.72
2022-08-12T02:45:57.489Z,101767.34
2022-08-12T02:48:30.270Z,101767.50
2022-08-12T02:51:01.735Z,101758.59
2022-08-12T02:53:34.078Z,101761.50
2022-08-12T02:56:05.154Z,101765.44
2022-08-12T02:58:33.711Z,101758.41
2022-08-12T03:01:10.470Z,101755.81
2022-08-12T03:03:40.216Z,101753.22
2022-08-12T03:06:16.801Z,101749.81
2022-08-12T03:08:49.150Z,101751.00
2022-08-12T03:11:30.068Z,101747.56
2022-08-12T03:14:02.389Z,101747.03
2022-08-12T03:16:33.378Z,101748.22
2022-08-12T03:19:00.516Z,101746.69
2022-08-12T03:21:55.369Z,101749.75
2022-08-12T03:24:18.505Z,101745.47
2022-08-12T03:26:47.587Z,101745.47
2022-08-12T03:29:16.460Z,101744.78
2022-08-12T03:31:44.075Z,101742.19
2022-08-12T03:34:14.512Z,101738.06
2022-08-12T03:36:42.319Z,101746.63
2022-08-12T03:39:17.921Z,101746.09
2022-08-12T03:42:09.291Z,101741.97
2022-08-12T03:45:04.621Z,101743.84
2022-08-12T03:47:49.926Z,101747.44
2022-08-12T03:50:36.049Z,101746.75
2022-08-12T03:53:25.666Z,101751.38
2022-08-12T03:56:11.699Z,101746.91
2022-08-12T03:58:57.939Z,101750.50
2022-08-12T04:01:26.826Z,101764.19
2022-08-12T04:03:55.319Z,101755.13
2022-08-12T04:06:34.828Z,101762.47
2022-08-12T04:09:14.686Z,101766.22
2022-08-12T04:12:03.765Z,101763.66
2022-08-12T04:14:36.880Z,101755.91
2022-08-12T04:17:04.234Z,101760.69
2022-08-12T04:19:31.396Z,101756.22
2022-08-12T04:22:01.967Z,101755.38
2022-08-12T04:24:35.350Z,101754.50
2022-08-12T04:27:05.583Z,101755.53
2022-08-12T04:30:31.318Z,101751.09
2022-08-12T04:32:19.107Z,101756.41
2022-08-12T04:34:46.852Z,101753.81
2022-08-12T04:37:13.400Z,101745.78
2022-08-12T04:39:40.729Z,101749.53
2022-08-12T04:42:07.355Z,101753.97
2022-08-12T04:44:33.890Z,101747.66
2022-08-12T04:47:00.640Z,101753.97
2022-08-12T04:49:28.551Z,101746.63
2022-08-12T04:51:59.504Z,101754.84
2022-08-12T04:54:30.796Z,101753.97
2022-08-12T04:57:03.709Z,101750.38
2022-08-12T04:59:48.499Z,101753.97
2022-08-12T05:02:26.372Z,101756.72
2022-08-12T05:05:00.613Z,101759.47
2022-08-12T05:07:28.143Z,101762.88
2022-08-12T05:09:58.936Z,101763.75
2022-08-12T05:12:34.207Z,101763.41
2022-08-12T05:15:00.915Z,101761.53
2022-08-12T05:17:28.320Z,101769.91
2022-08-12T05:19:57.341Z,101766.31
2022-08-12T05:22:26.391Z,101769.75
2022-08-12T05:24:54.043Z,101764.28
2022-08-12T05:27:22.780Z,101769.41
2022-08-12T05:30:05.293Z,101765.53
2022-08-12T05:32:36.579Z,101764.34
2022-08-12T05:35:06.426Z,101770.53
2022-08-12T05:37:34.749Z,101761.97
2022-08-12T05:40:10.118Z,101764.38
2022-08-12T05:42:37.884Z,101780.31
2022-08-12T05:45:05.166Z,101771.63
2022-08-12T05:47:44.912Z,101773.00
2022-08-12T05:50:18.371Z,101776.78
2022-08-12T05:52:44.881Z,101778.19
2022-08-12T05:55:11.630Z,101772.03
2022-08-12T05:57:38.524Z,101776.84
2022-08-12T06:00:06.415Z,101779.97
2022-08-12T06:02:38.187Z,101779.31
2022-08-12T06:05:07.418Z,101782.06
2022-08-12T06:07:59.145Z,101786.75
2022-08-12T06:10:31.613Z,101776.66
2022-08-12T06:13:05.276Z,101782.00
2022-08-12T06:15:37.782Z,101785.44
2022-08-12T06:18:14.144Z,101788.69
2022-08-12T06:20:43.642Z,101790.78
2022-08-12T06:23:12.001Z,101786.84
2022-08-12T06:25:38.813Z,101794.41
2022-08-12T06:28:17.685Z,101787.53
2022-08-12T06:30:57.253Z,101788.72
2022-08-12T06:33:57.713Z,101786.63
2022-08-12T06:36:23.195Z,101780.06
2022-08-12T06:38:50.647Z,101779.34
2022-08-12T06:41:36.559Z,101775.66
2022-08-12T06:44:09.021Z,101777.97
2022-08-12T06:46:39.341Z,101776.88
2022-08-12T06:49:07.012Z,101772.16
2022-08-12T06:51:33.956Z,101772.88
2022-08-12T06:54:01.820Z,101769.78
2022-08-12T06:56:59.810Z,101768.25
2022-08-12T06:59:15.756Z,101767.19
2022-08-12T07:01:50.830Z,101768.34
2022-08-12T07:04:37.226Z,101766.09
2022-08-12T07:07:10.460Z,101764.84
2022-08-12T07:10:04.089Z,101761.50
2022-08-12T07:12:28.115Z,101769.56
2022-08-12T07:14:59.127Z,101774.38
2022-08-12T07:17:27.925Z,101766.72
2022-08-12T07:19:58.004Z,101772.41
2022-08-12T07:22:27.334Z,101774.38
2022-08-12T07:25:14.099Z,101773.03
2022-08-12T07:27:42.332Z,101772.13
2022-08-12T07:30:09.915Z,101769.97
2022-08-12T07:32:37.007Z,101782.19
2022-08-12T07:35:05.219Z,101780.13
2022-08-12T07:37:32.359Z,101780.19
2022-08-12T07:40:00.335Z,101777.53
2022-08-12T07:42:28.047Z,101782.09
2022-08-12T07:44:56.420Z,101790.44
2022-08-12T07:47:23.981Z,101791.34
2022-08-12T07:50:04.695Z,101789.88
2022-08-12T07:52:38.432Z,101795.25
2022-08-12T07:55:06.461Z,101786.94
2022-08-12T07:57:33.271Z,101786.94
2022-08-12T08:00:05.834Z,101792.03
2022-08-12T08:02:35.780Z,101786.47
2022-08-12T08:05:03.565Z,101786.47
2022-08-12T08:07:30.825Z,101786.88
2022-08-12T08:09:59.785Z,101783.84
2022-08-12T08:12:46.084Z,101788.28
2022-08-12T08:15:15.012Z,101785.63
2022-08-12T08:17:57.688Z,101778.97
2022-08-12T08:20:28.488Z,101785.09
2022-08-12T08:23:01.373Z,101789.47
2022-08-12T08:25:36.181Z,101784.44
2022-08-12T08:28:10.590Z,101787.13
2022-08-12T08:30:43.797Z,101781.47
2022-08-12T08:33:23.484Z,101780.53
2022-08-12T08:36:03.085Z,101791.75
2022-08-12T08:38:33.218Z,101783.09
2022-08-12T08:42:15.751Z,101783.06
2022-08-12T08:44:11.359Z,101784.38
2022-08-12T08:46:43.564Z,101787.00
2022-08-12T08:49:11.203Z,101783.88
2022-08-12T08:51:39.012Z,101786.13
2022-08-12T08:54:12.147Z,101787.28
2022-08-12T08:56:50.040Z,101788.78
2022-08-12T08:59:19.479Z,101792.25
2022-08-12T09:01:47.409Z,101791.47
2022-08-12T09:05:13.645Z,101784.47
2022-08-12T09:07:17.420Z,101786.84
2022-08-12T09:12:56.407Z,101780.44
2022-08-12T09:15:35.615Z,101779.88
2022-08-12T09:18:08.950Z,101783.16
2022-08-12T09:20:38.550Z,101776.38
2022-08-12T09:23:58.836Z,101778.06
2022-08-12T09:25:57.785Z,101772.75
2022-08-12T09:28:31.281Z,101775.22
2022-08-12T09:31:00.108Z,101782.47
2022-08-12T09:34:29.258Z,101779.66
2022-08-12T09:36:30.697Z,101771.59
2022-08-12T09:38:58.955Z,101767.81
2022-08-12T09:42:32.892Z,101771.34
2022-08-12T09:44:39.290Z,101766.50
2022-08-12T09:47:10.424Z,101756.63
2022-08-12T09:49:42.221Z,101762.41
2022-08-12T09:52:11.569Z,101759.19
2022-08-12T09:54:42.690Z,101755.91
2022-08-12T09:58:08.071Z,101760.50
2022-08-12T10:00:12.618Z,101767.72
2022-08-12T10:03:05.630Z,101748.59
2022-08-12T10:06:20.089Z,101751.81
2022-08-12T10:08:24.470Z,101747.78
2022-08-12T10:11:18.482Z,101742.44
2022-08-12T10:13:49.963Z,101734.41
2022-08-12T10:16:38.607Z,101737.88
2022-08-12T10:19:05.964Z,101738.41
2022-08-12T10:21:44.992Z,101741.00
2022-08-12T10:24:15.663Z,101740.81
2022-08-12T10:27:06.307Z,101732.00
2022-08-12T10:30:36.971Z,101723.41
2022-08-12T10:32:44.944Z,101717.91
2022-08-12T10:35:25.772Z,101715.53
2022-08-12T10:38:34.890Z,101709.72
2022-08-12T10:41:03.946Z,101718.88
2022-08-12T10:43:54.471Z,101694.84
2022-08-12T10:46:24.028Z,101705.00
2022-08-12T10:49:05.269Z,101697.81
2022-08-12T10:52:04.027Z,101686.72
2022-08-12T10:54:19.845Z,101698.59
2022-08-12T10:56:54.846Z,101693.84
2022-08-12T10:59:58.528Z,101680.97
2022-08-12T11:04:19.069Z,101676.53
2022-08-12T11:07:03.467Z,101674.34
2022-08-12T11:08:35.973Z,101674.97
2022-08-12T11:10:37.375Z,101675.59
2022-08-12T11:13:09.450Z,101661.16
2022-08-12T11:16:19.544Z,101666.31
2022-08-12T11:18:25.287Z,101667.50
2022-08-12T11:20:54.260Z,101656.91
2022-08-12T11:23:36.829Z,101649.97
2022-08-12T11:26:06.797Z,101643.81
2022-08-12T11:28:36.881Z,101651.94
2022-08-12T11:31:06.492Z,101644.63
2022-08-12T11:34:04.763Z,101652.19
2022-08-12T11:36:24.190Z,101649.41
2022-08-12T11:38:52.809Z,101643.53
2022-08-12T11:41:28.031Z,101640.25
2022-08-12T11:44:29.093Z,101645.63
2022-08-12T11:46:58.105Z,101634.16
2022-08-12T11:49:26.923Z,101630.81
2022-08-12T11:51:58.941Z,101622.75
2022-08-12T11:54:25.639Z,101625.56
2022-08-12T11:56:59.375Z,101625.03
2022-08-12T12:02:16.416Z,101613.84
2022-08-12T12:04:45.557Z,101619.47
2022-08-12T12:07:18.938Z,101615.25
2022-08-12T12:09:53.361Z,101614.19
2022-08-12T12:12:25.092Z,101611.69
2022-08-12T12:14:54.937Z,101607.78
2022-08-12T12:17:26.158Z,101601.63
2022-08-12T12:19:53.973Z,101607.84
2022-08-12T12:22:23.525Z,101602.59
2022-08-12T12:24:54.200Z,101599.50
2022-08-12T12:27:40.177Z,101600.63
2022-08-12T12:30:18.173Z,101595.56
2022-08-12T12:33:17.724Z,101587.16
2022-08-12T12:35:44.729Z,101590.81
2022-08-12T12:38:31.308Z,101581.25
2022-08-12T12:41:16.983Z,101577.31
2022-08-12T12:44:04.111Z,101579.28
2022-08-12T12:46:31.104Z,101573.13
2022-08-12T12:48:58.105Z,101570.59
2022-08-12T12:52:06.739Z,101579.88
2022-08-12T12:54:11.257Z,101568.34
2022-08-12T12:56:40.428Z,101562.44
2022-08-12T12:59:54.776Z,101555.97
2022-08-12T13:01:55.130Z,101561.31
2022-08-12T13:04:22.507Z,101554.56
2022-08-12T13:06:52.705Z,101563.00
2022-08-12T13:09:22.278Z,101551.19
2022-08-12T13:11:53.173Z,101544.19
2022-08-12T13:14:28.659Z,101555.69
2022-08-12T13:17:02.824Z,101548.97
2022-08-12T13:19:37.272Z,101542.50
2022-08-12T13:22:18.835Z,101541.94
2022-08-12T13:25:11.898Z,101537.72
2022-08-12T13:27:46.212Z,101536.03
2022-08-12T13:30:23.871Z,101539.38
2022-08-12T13:32:59.238Z,101530.97
2022-08-12T13:36:05.987Z,101546.16
2022-08-12T13:38:26.554Z,101542.78
2022-08-12T13:41:01.401Z,101534.34
2022-08-12T13:43:41.379Z,101535.75
2022-08-12T13:46:12.299Z,101531.81
2022-08-12T13:48:45.038Z,101535.47
2022-08-12T13:51:13.440Z,101538.84
2022-08-12T13:53:59.130Z,101532.66
2022-08-12T13:56:31.538Z,101529.25
2022-08-12T13:59:08.096Z,101524.78
2022-08-12T14:01:40.405Z,101517.47
2022-08-12T14:04:12.512Z,101506.78
2022-08-12T14:06:40.668Z,101512.41
2022-08-12T14:09:17.935Z,101501.72
2022-08-12T14:11:58.889Z,101500.06
2022-08-12T14:14:31.525Z,101492.19
2022-08-12T14:17:08.170Z,101494.69
2022-08-12T14:19:48.590Z,101498.06
2022-08-12T14:22:20.234Z,101496.13
2022-08-12T14:24:47.388Z,101500.06
2022-08-12T14:27:13.932Z,101498.94
2022-08-12T14:30:15.067Z,101497.84
2022-08-12T14:32:42.897Z,101496.44
2022-08-12T14:35:12.060Z,101489.69
2022-08-12T14:37:55.899Z,101488.84
2022-08-12T14:40:27.802Z,101490.00
2022-08-12T14:43:14.749Z,101490.81
2022-08-12T14:45:49.040Z,101482.13
2022-08-12T14:48:19.194Z,101493.91
2022-08-12T14:51:03.050Z,101488.88
2022-08-12T14:59:56.665Z,101470.31
2022-08-12T15:02:20.715Z,101470.84
2022-08-12T15:05:03.424Z,101466.66
2022-08-12T15:07:34.051Z,101462.44
2022-08-12T15:10:10.950Z,101457.94
2022-08-12T15:12:40.597Z,101457.09
2022-08-12T15:15:08.738Z,101457.97
2022-08-12T15:17:38.536Z,101454.56
2022-08-12T15:20:12.169Z,101453.47
2022-08-12T15:23:01.351Z,101456.28
2022-08-12T15:25:28.728Z,101456.56
2022-08-12T15:28:04.066Z,101451.25
2022-08-12T15:30:33.809Z,101453.50
2022-08-12T15:33:12.825Z,101452.59
2022-08-12T15:35:50.167Z,101456.25
2022-08-12T15:38:21.152Z,101446.72
2022-08-12T15:40:49.850Z,101447.56
2022-08-12T15:44:16.458Z,101446.72
2022-08-12T15:46:15.896Z,101446.72
2022-08-12T15:48:47.028Z,101446.44
2022-08-12T15:51:58.480Z,101439.66
2022-08-12T15:54:33.612Z,101446.38
2022-08-12T15:57:08.110Z,101441.03
2022-08-12T16:00:00.251Z,101438.72
2022-08-12T16:02:27.141Z,101441.22
2022-08-12T16:04:57.910Z,101433.03
2022-08-12T16:07:25.928Z,101435.50
2022-08-12T16:10:05.605Z,101434.91
2022-08-12T16:12:39.506Z,101444.09
2022-08-12T16:15:08.464Z,101432.81
2022-08-12T16:18:09.056Z,101436.66
2022-08-12T16:20:27.834Z,101434.06
2022-08-12T16:23:26.877Z,101436.22
2022-08-12T16:26:05.501Z,101428.00
2022-08-12T16:28:33.591Z,101433.53
2022-08-12T16:31:01.995Z,101426.75
2022-08-12T16:33:58.678Z,101429.19
2022-08-12T16:36:25.591Z,101425.75
2022-08-12T16:38:52.376Z,101425.69
2022-08-12T16:41:18.885Z,101422.50
2022-08-12T16:43:47.339Z,101424.09
2022-08-12T16:46:23.906Z,101429.38
2022-08-12T16:48:59.733Z,101424.31
2022-08-12T16:51:40.395Z,101424.81
2022-08-12T16:54:14.057Z,101412.16
2022-08-12T16:56:54.527Z,101407.63
2022-08-12T16:59:23.974Z,101407.28
2022-08-12T17:01:50.795Z,101406.63
2022-08-12T17:04:18.822Z,101408.78
2022-08-12T17:06:47.863Z,101413.97
2022-08-12T17:09:17.303Z,101414.16
2022-08-12T17:11:45.208Z,101406.00
2022-08-12T17:14:20.496Z,101400.34
2022-08-12T17:16:51.840Z,101407.56
2022-08-12T17:19:19.867Z,101407.22
2022-08-12T17:22:02.752Z,101410.19
2022-08-12T17:24:32.732Z,101411.50
2022-08-12T17:27:09.569Z,101400.44
2022-08-12T17:30:01.578Z,101412.56
2022-08-12T17:32:31.209Z,101414.34
2022-08-12T17:35:18.457Z,101418.88
2022-08-12T17:37:48.354Z,101409.84
2022-08-12T17:40:34.698Z,101409.78
2022-08-12T17:43:56.371Z,101413.31
2022-08-12T17:45:59.027Z,101421.03
2022-08-12T17:48:35.152Z,101409.78
2022-08-12T17:51:15.123Z,101413.25
2022-08-12T17:54:11.416Z,101410.84
2022-08-12T17:56:37.208Z,101416.84
2022-08-12T17:59:04.024Z,101419.16
2022-08-12T18:01:35.893Z,101423.22
2022-08-12T18:04:21.756Z,101422.53
2022-08-12T18:06:52.951Z,101427.41
2022-08-12T18:09:21.785Z,101419.91
2022-08-12T18:12:11.169Z,101427.59
2022-08-12T18:14:41.563Z,101429.06
2022-08-12T18:17:16.188Z,101431.66
2022-08-12T18:20:05.809Z,101435.28
2022-08-12T18:22:33.121Z,101438.94
2022-08-12T18:25:05.036Z,101438.44
2022-08-12T18:27:46.704Z,101437.88
2022-08-12T18:30:20.467Z,101440.06
2022-08-12T18:33:03.758Z,101448.03
2022-08-12T18:35:46.891Z,101447.38
2022-08-12T18:38:17.988Z,101449.78
2022-08-12T18:41:07.083Z,101455.31
2022-08-12T18:43:58.457Z,101457.44
2022-08-12T18:46:48.909Z,101452.06
2022-08-12T18:49:37.964Z,101454.81
2022-08-12T18:52:07.769Z,101455.34
2022-08-12T18:54:49.083Z,101458.69
2022-08-12T18:57:45.931Z,101448.81
2022-08-12T19:00:18.796Z,101453.06
2022-08-12T19:02:53.445Z,101452.75
2022-08-12T19:05:54.515Z,101451.00
2022-08-12T19:08:26.411Z,101451.31
2022-08-12T19:10:54.367Z,101461.25
2022-08-12T19:13:43.587Z,101462.00
2022-08-12T19:16:10.893Z,101467.44
2022-08-12T19:18:44.562Z,101463.72
2022-08-12T19:21:16.366Z,101463.81
2022-08-12T19:23:44.407Z,101459.19
2022-08-12T19:26:12.427Z,101462.06
2022-08-12T19:28:39.753Z,101470.47
2022-08-12T19:31:56.747Z,101469.69
2022-08-12T19:34:56.302Z,101462.50
2022-08-12T19:37:20.387Z,101471.72
2022-08-12T19:40:10.160Z,101467.91
2022-08-12T19:42:42.718Z,101472.22
2022-08-12T19:45:15.790Z,101471.16
2022-08-12T19:47:44.634Z,101476.31
2022-08-12T19:50:11.871Z,101475.06
2022-08-12T19:52:39.001Z,101471.88
2022-08-12T19:55:11.573Z,101477.84
2022-08-12T19:58:03.337Z,101474.44
2022-08-12T20:00:34.441Z,101482.53
2022-08-12T20:03:05.428Z,101467.59
2022-08-12T20:06:05.124Z,101482.91
2022-08-12T20:08:31.678Z,101476.13
2022-08-12T20:12:13.202Z,101480.78
2022-08-12T20:14:00.972Z,101480.38
2022-08-12T20:16:57.306Z,101478.66
2022-08-12T20:19:52.236Z,101490.16
2022-08-12T20:22:23.392Z,101484.19
2022-08-12T20:24:55.337Z,101484.84
2022-08-12T20:27:29.237Z,101490.16
2022-08-12T20:30:13.768Z,101492.69
2022-08-12T20:33:32.181Z,101492.91
2022-08-12T20:36:13.261Z,101492.47
2022-08-12T20:38:46.719Z,101487.34
2022-08-12T20:41:17.715Z,101486.44
2022-08-12T20:43:49.663Z,101484.91
2022-08-12T20:46:21.088Z,101480.03
2022-08-12T20:48:54.993Z,101487.88
2022-08-12T20:51:24.485Z,101488.50
2022-08-12T20:53:59.431Z,101488.25
2022-08-12T20:56:30.318Z,101491.00
2022-08-12T20:59:00.874Z,101489.47
2022-08-12T21:01:29.265Z,101487.31
2022-08-12T21:04:33.226Z,101485.97
2022-08-12T21:07:09.411Z,101492.03
2022-08-12T21:09:40.658Z,101492.81
2022-08-12T21:12:31.733Z,101482.97
2022-08-12T21:15:18.035Z,101487.41
2022-08-12T21:18:09.057Z,101487.16
2022-08-12T21:20:34.416Z,101492.22
2022-08-12T21:23:06.464Z,101491.78
2022-08-12T21:25:36.357Z,101486.47
2022-08-12T21:28:11.662Z,101484.97
2022-08-12T21:30:43.354Z,101488.75
2022-08-12T21:34:06.671Z,101486.84
2022-08-12T21:36:34.881Z,101487.03
2022-08-12T21:39:20.818Z,101491.91
2022-08-12T21:41:52.968Z,101490.00
2022-08-12T21:45:44.397Z,101488.50
2022-08-12T21:47:21.179Z,101485.28
2022-08-12T21:49:55.745Z,101487.59
2022-08-12T21:52:34.778Z,101484.19
2022-08-12T21:55:08.554Z,101486.28
2022-08-12T21:57:53.502Z,101483.72
2022-08-12T22:00:33.316Z,101485.84
2022-08-12T22:04:01.410Z,101485.84
2022-08-12T22:06:30.871Z,101494.09
2022-08-12T22:09:15.976Z,101500.66
2022-08-12T22:11:56.177Z,101493.41
2022-08-12T22:14:26.171Z,101492.56
2022-08-12T22:16:55.851Z,101498.28
2022-08-12T22:19:23.361Z,101505.69
2022-08-12T22:21:53.463Z,101501.44
2022-08-12T22:24:26.584Z,101507.34
2022-08-12T22:27:17.838Z,101505.56
2022-08-12T22:30:16.827Z,101503.22
2022-08-12T22:32:50.202Z,101505.13
2022-08-12T22:35:56.365Z,101495.09
2022-08-12T22:38:24.002Z,101503.28
2022-08-12T22:40:54.292Z,101496.66
2022-08-12T22:43:58.580Z,101493.63
2022-08-12T22:46:52.748Z,101503.13
2022-08-12T22:49:37.112Z,101499.06
2022-08-12T22:52:18.228Z,101500.88
2022-08-12T22:55:02.276Z,101501.66
2022-08-12T22:57:54.356Z,101500.75
2022-08-12T23:00:24.555Z,101497.03
2022-08-12T23:03:48.150Z,101499.91
2022-08-12T23:06:10.228Z,101497.25
2022-08-12T23:08:38.563Z,101498.03
2022-08-12T23:11:06.406Z,101491.59
2022-08-12T23:13:55.325Z,101495.94
2022-08-12T23:16:31.687Z,101493.75
2022-08-12T23:19:23.238Z,101496.22
2022-08-12T23:22:06.602Z,101499.75
2022-08-12T23:24:55.611Z,101498.63
2022-08-12T23:27:50.254Z,101496.25
2022-08-12T23:30:24.725Z,101493.22
2022-08-12T23:33:13.210Z,101500.13
2022-08-12T23:35:58.869Z,101497.53
2022-08-12T23:38:32.321Z,101496.03
2022-08-12T23:41:05.647Z,101497.25
2022-08-12T23:43:39.260Z,101501.03
2022-08-12T23:46:09.221Z,101497.63
2022-08-12T23:48:37.357Z,101497.63
2022-08-12T23:51:22.727Z,101498.00
2022-08-12T23:54:02.859Z,101494.59
2022-08-12T23:56:33.131Z,101501.50
2022-08-12T23:59:08.845Z,101501.03
